createdAt,value
2023-05-25T00:01:24.506Z,100.00
2023-05-25T00:03:55.352Z,100.00
2023-05-25T00:06:22.498Z,100.00
2023-05-25T00:08:51.264Z,100.00
2023-05-25T00:12:11.922Z,100.00
2023-05-25T00:14:38.386Z,100.00
2023-05-25T00:17:05.728Z,100.00
2023-05-25T00:19:32.448Z,100.00
2023-05-25T00:22:02.160Z,100.00
2023-05-25T00:24:32.682Z,100.00
2023-05-25T00:26:59.323Z,100.00
2023-05-25T00:29:26.160Z,100.00
2023-05-25T00:31:53.695Z,100.00
2023-05-25T00:34:20.722Z,100.00
2023-05-25T00:36:50.362Z,100.00
2023-05-25T00:39:19.183Z,100.00
2023-05-25T00:41:46.905Z,100.00
2023-05-25T00:44:21.245Z,100.00
2023-05-25T00:46:50.472Z,100.00
2023-05-25T00:49:25.152Z,100.00
2023-05-25T00:51:52.799Z,100.00
2023-05-25T00:54:19.722Z,100.00
2023-05-25T00:57:07.784Z,100.00
2023-05-25T00:59:44.075Z,100.00
2023-05-25T01:02:15.682Z,100.00
2023-05-25T01:04:47.268Z,100.00
2023-05-25T01:07:18.344Z,100.00
2023-05-25T01:09:45.234Z,100.00
2023-05-25T01:12:14.352Z,100.00
2023-05-25T01:14:41.976Z,100.00
2023-05-25T01:17:11.512Z,100.00
2023-05-25T01:19:41.052Z,100.00
2023-05-25T01:22:24.055Z,100.00
2023-05-25T01:24:57.751Z,100.00
2023-05-25T01:27:44.306Z,100.00
2023-05-25T01:30:14.097Z,100.00
2023-05-25T01:32:42.685Z,100.00
2023-05-25T01:35:10.128Z,100.00
2023-05-25T01:37:40.891Z,100.00
2023-05-25T01:40:08.560Z,100.00
2023-05-25T01:42:35.032Z,100.00
2023-05-25T01:45:01.698Z,100.00
2023-05-25T01:47:46.783Z,100.00
2023-05-25T01:50:38.613Z,100.00
2023-05-25T01:53:16.089Z,100.00
2023-05-25T01:56:05.026Z,100.00
2023-05-25T01:58:38.720Z,100.00
2023-05-25T02:01:05.754Z,100.00
2023-05-25T02:03:32.389Z,100.00
2023-05-25T02:05:58.958Z,100.00
2023-05-25T02:08:25.526Z,100.00
2023-05-25T02:10:52.059Z,100.00
2023-05-25T02:13:18.502Z,100.00
2023-05-25T02:15:45.224Z,100.00
2023-05-25T02:18:13.644Z,100.00
2023-05-25T02:20:40.201Z,100.00
2023-05-25T02:23:06.828Z,100.00
2023-05-25T02:25:33.272Z,100.00
2023-05-25T02:27:59.760Z,100.00
2023-05-25T02:30:26.326Z,100.00
2023-05-25T02:32:53.899Z,100.00
2023-05-25T02:35:20.522Z,100.00
2023-05-25T02:37:48.983Z,100.00
2023-05-25T02:40:17.417Z,100.00
2023-05-25T02:42:43.958Z,100.00
2023-05-25T02:45:11.284Z,100.00
2023-05-25T02:47:37.946Z,100.00
2023-05-25T02:50:05.268Z,100.00
2023-05-25T02:52:32.630Z,100.00
2023-05-25T02:54:59.208Z,100.00
2023-05-25T02:57:25.933Z,100.00
2023-05-25T02:59:52.712Z,100.00
2023-05-25T03:02:21.074Z,100.00
2023-05-25T03:04:49.755Z,100.00
2023-05-25T03:07:16.392Z,100.00
2023-05-25T03:09:42.866Z,100.00
2023-05-25T03:12:09.374Z,100.00
2023-05-25T03:14:35.871Z,100.00
2023-05-25T03:17:02.374Z,100.00
2023-05-25T03:19:47.009Z,100.00
2023-05-25T03:22:23.352Z,100.00
2023-05-25T03:24:53.973Z,100.00
2023-05-25T03:27:34.413Z,100.00
2023-05-25T03:30:04.272Z,100.00
2023-05-25T03:32:32.886Z,100.00
2023-05-25T03:34:59.642Z,100.00
2023-05-25T03:37:26.122Z,100.00
2023-05-25T03:39:52.540Z,100.00
2023-05-25T03:42:18.979Z,100.00
2023-05-25T03:44:45.424Z,100.00
2023-05-25T03:47:12.710Z,100.00
2023-05-25T03:49:39.157Z,100.00
2023-05-25T03:52:06.271Z,100.00
2023-05-25T03:54:32.859Z,100.00
2023-05-25T03:56:59.499Z,100.00
2023-05-25T03:59:26.027Z,100.00
2023-05-25T04:01:52.441Z,100.00
2023-05-25T04:04:18.948Z,100.00
2023-05-25T04:06:49.749Z,100.00
2023-05-25T04:09:16.230Z,100.00
2023-05-25T04:11:42.678Z,100.00
2023-05-25T04:14:09.129Z,100.00
2023-05-25T04:16:35.711Z,100.00
2023-05-25T04:19:02.327Z,100.00
2023-05-25T04:21:29.119Z,100.00
2023-05-25T04:23:55.535Z,100.00
2023-05-25T04:26:22.072Z,100.00
2023-05-25T04:28:48.574Z,100.00
2023-05-25T04:31:15.084Z,100.00
2023-05-25T04:33:41.599Z,100.00
2023-05-25T04:36:11.247Z,100.00
2023-05-25T04:38:37.910Z,100.00
2023-05-25T04:41:05.868Z,100.00
2023-05-25T04:43:32.486Z,100.00
2023-05-25T04:45:59.983Z,100.00
2023-05-25T04:48:28.546Z,100.00
2023-05-25T04:50:58.068Z,100.00
2023-05-25T04:53:24.558Z,100.00
2023-05-25T04:55:51.583Z,100.00
2023-05-25T04:58:18.341Z,100.00
2023-05-25T05:00:45.430Z,100.00
2023-05-25T05:03:13.527Z,100.00
2023-05-25T05:05:40.056Z,100.00
2023-05-25T05:08:06.507Z,100.00
2023-05-25T05:10:33.064Z,100.00
2023-05-25T05:12:59.524Z,100.00
2023-05-25T05:15:26.254Z,100.00
2023-05-25T05:17:54.285Z,100.00
2023-05-25T05:20:20.858Z,100.00
2023-05-25T05:22:47.401Z,100.00
2023-05-25T05:25:13.921Z,100.00
2023-05-25T05:27:40.870Z,100.00
2023-05-25T05:30:08.205Z,100.00
2023-05-25T05:32:34.827Z,100.00
2023-05-25T05:35:01.328Z,100.00
2023-05-25T05:37:27.788Z,100.00
2023-05-25T05:39:54.220Z,100.00
2023-05-25T05:42:20.698Z,100.00
2023-05-25T05:44:47.224Z,100.00
2023-05-25T05:47:13.699Z,100.00
2023-05-25T05:49:40.129Z,100.00
2023-05-25T05:52:09.211Z,100.00
2023-05-25T05:54:35.924Z,100.00
2023-05-25T05:57:02.500Z,100.00
2023-05-25T05:59:29.015Z,100.00
2023-05-25T06:01:56.068Z,100.00
2023-05-25T06:04:25.356Z,100.00
2023-05-25T06:06:51.827Z,100.00
2023-05-25T06:09:18.253Z,100.00
2023-05-25T06:11:44.677Z,100.00
2023-05-25T06:14:11.353Z,100.00
2023-05-25T06:16:38.097Z,100.00
2023-05-25T06:19:04.607Z,100.00
2023-05-25T06:21:31.109Z,100.00
2023-05-25T06:24:00.716Z,100.00
2023-05-25T06:26:29.195Z,100.00
2023-05-25T06:28:57.456Z,100.00
2023-05-25T06:31:23.938Z,100.00
2023-05-25T06:33:50.474Z,100.00
2023-05-25T06:36:17.065Z,100.00
2023-05-25T06:38:43.648Z,100.00
2023-05-25T06:41:12.822Z,100.00
2023-05-25T06:43:39.474Z,100.00
2023-05-25T06:46:06.212Z,100.00
2023-05-25T06:48:32.651Z,100.00
2023-05-25T06:50:59.532Z,100.00
2023-05-25T06:53:26.082Z,100.00
2023-05-25T06:55:52.614Z,100.00
2023-05-25T06:58:19.082Z,100.00
2023-05-25T07:00:46.848Z,100.00
2023-05-25T07:03:13.641Z,100.00
2023-05-25T07:05:40.214Z,100.00
2023-05-25T07:08:06.789Z,100.00
2023-05-25T07:10:33.821Z,100.00
2023-05-25T07:13:00.383Z,100.00
2023-05-25T07:15:26.821Z,100.00
2023-05-25T07:17:58.704Z,100.00
2023-05-25T07:20:25.466Z,100.00
2023-05-25T07:22:53.324Z,100.00
2023-05-25T07:25:20.018Z,100.00
2023-05-25T07:27:50.345Z,100.00
2023-05-25T07:30:17.047Z,100.00
2023-05-25T07:32:43.671Z,100.00
2023-05-25T07:35:10.258Z,100.00
2023-05-25T07:37:36.759Z,100.00
2023-05-25T07:40:03.920Z,100.00
2023-05-25T07:42:34.259Z,100.00
2023-05-25T07:45:01.425Z,100.00
2023-05-25T07:47:28.235Z,100.00
2023-05-25T07:49:57.543Z,100.00
2023-05-25T07:52:24.172Z,100.00
2023-05-25T07:54:50.734Z,100.00
2023-05-25T07:57:17.279Z,100.00
2023-05-25T07:59:44.905Z,100.00
2023-05-25T08:02:11.552Z,100.00
2023-05-25T08:04:38.124Z,100.00
2023-05-25T08:07:04.844Z,100.00
2023-05-25T08:09:31.369Z,100.00
2023-05-25T08:12:12.819Z,100.00
2023-05-25T08:14:45.330Z,100.00
2023-05-25T08:17:12.422Z,100.00
2023-05-25T08:19:50.286Z,100.00
2023-05-25T08:22:16.899Z,100.00
2023-05-25T08:24:43.465Z,100.00
2023-05-25T08:27:09.927Z,100.00
2023-05-25T08:29:36.532Z,100.00
2023-05-25T08:32:10.555Z,100.00
2023-05-25T08:34:40.461Z,100.00
2023-05-25T08:37:06.916Z,100.00
2023-05-25T08:39:34.935Z,100.00
2023-05-25T08:42:01.983Z,100.00
2023-05-25T08:44:36.872Z,100.00
2023-05-25T08:47:13.893Z,100.00
2023-05-25T08:49:41.769Z,100.00
2023-05-25T08:52:14.672Z,100.00
2023-05-25T08:54:44.242Z,100.00
2023-05-25T08:57:31.982Z,100.00
2023-05-25T09:00:11.759Z,100.00
2023-05-25T09:02:59.943Z,100.00
2023-05-25T09:05:26.878Z,100.00
2023-05-25T09:07:54.789Z,100.00
2023-05-25T09:10:22.340Z,100.00
2023-05-25T09:12:51.749Z,100.00
2023-05-25T09:15:18.644Z,100.00
2023-05-25T09:17:45.156Z,100.00
2023-05-25T09:20:13.806Z,100.00
2023-05-25T09:22:42.003Z,100.00
2023-05-25T09:25:10.934Z,100.00
2023-05-25T09:27:38.134Z,100.00
2023-05-25T09:30:05.845Z,100.00
2023-05-25T09:32:32.633Z,100.00
2023-05-25T09:35:12.937Z,100.00
2023-05-25T09:37:41.675Z,100.00
2023-05-25T09:40:10.758Z,100.00
2023-05-25T09:42:40.124Z,100.00
2023-05-25T09:45:07.186Z,100.00
2023-05-25T09:47:36.636Z,100.00
2023-05-25T09:50:03.951Z,100.00
2023-05-25T09:52:31.457Z,100.00
2023-05-25T09:54:57.998Z,100.00
2023-05-25T09:57:24.470Z,100.00
2023-05-25T09:59:50.976Z,100.00
2023-05-25T10:02:17.454Z,100.00
2023-05-25T10:04:44.557Z,100.00
2023-05-25T10:07:11.250Z,100.00
2023-05-25T10:09:43.053Z,100.00
2023-05-25T10:12:10.353Z,100.00
2023-05-25T10:14:38.361Z,100.00
2023-05-25T10:17:07.058Z,100.00
2023-05-25T10:20:06.269Z,100.00
2023-05-25T10:22:36.873Z,100.00
2023-05-25T10:25:43.927Z,100.00
2023-05-25T10:28:26.777Z,100.00
2023-05-25T10:30:54.900Z,100.00
2023-05-25T10:33:21.566Z,100.00
2023-05-25T10:36:02.141Z,100.00
2023-05-25T10:38:34.583Z,100.00
2023-05-25T10:41:04.219Z,100.00
2023-05-25T10:43:31.015Z,100.00
2023-05-25T10:45:57.674Z,100.00
2023-05-25T10:48:35.615Z,100.00
2023-05-25T10:51:02.126Z,100.00
2023-05-25T10:53:28.664Z,100.00
2023-05-25T10:55:55.399Z,100.00
2023-05-25T10:58:23.581Z,100.00
2023-05-25T11:01:10.962Z,100.00
2023-05-25T11:03:57.212Z,100.00
2023-05-25T11:06:46.497Z,100.00
2023-05-25T11:09:27.011Z,100.00
2023-05-25T11:11:55.540Z,100.00
2023-05-25T11:14:29.697Z,100.00
2023-05-25T11:17:14.426Z,100.00
2023-05-25T11:19:41.421Z,100.00
2023-05-25T11:22:20.236Z,100.00
2023-05-25T11:24:51.492Z,100.00
2023-05-25T11:27:47.439Z,100.00
2023-05-25T11:30:17.955Z,100.00
2023-05-25T11:32:50.871Z,100.00
2023-05-25T11:35:17.397Z,100.00
2023-05-25T11:37:50.822Z,100.00
2023-05-25T11:40:17.393Z,100.00
2023-05-25T11:42:48.266Z,100.00
2023-05-25T11:45:14.738Z,100.00
2023-05-25T11:47:41.425Z,100.00
2023-05-25T11:50:08.198Z,100.00
2023-05-25T11:52:34.683Z,100.00
2023-05-25T11:55:01.342Z,100.00
2023-05-25T11:57:27.889Z,100.00
2023-05-25T11:59:56.148Z,100.00
2023-05-25T12:02:23.818Z,100.00
2023-05-25T12:04:57.280Z,100.00
2023-05-25T12:07:24.648Z,100.00
2023-05-25T12:09:51.136Z,100.00
2023-05-25T12:12:17.788Z,100.00
2023-05-25T12:14:48.876Z,100.00
2023-05-25T12:17:17.269Z,100.00
2023-05-25T12:19:44.803Z,100.00
2023-05-25T12:22:13.336Z,100.00
2023-05-25T12:24:40.692Z,100.00
2023-05-25T12:27:22.541Z,100.00
2023-05-25T12:29:49.473Z,100.00
2023-05-25T12:32:16.482Z,100.00
2023-05-25T12:34:43.396Z,100.00
2023-05-25T12:37:21.001Z,100.00
2023-05-25T12:39:48.276Z,100.00
2023-05-25T12:42:16.794Z,100.00
2023-05-25T12:44:46.381Z,100.00
2023-05-25T12:47:22.415Z,100.00
2023-05-25T12:49:51.894Z,100.00
2023-05-25T12:52:41.326Z,97.97
2023-05-25T12:55:30.375Z,97.01
2023-05-25T12:58:02.086Z,99.85
2023-05-25T13:00:39.911Z,100.00
2023-05-25T13:03:07.807Z,100.00
2023-05-25T13:05:36.863Z,100.00
2023-05-25T13:08:05.096Z,100.00
2023-05-25T13:10:32.835Z,100.00
2023-05-25T13:12:59.915Z,99.94
2023-05-25T13:15:26.955Z,100.00
2023-05-25T13:17:56.240Z,98.77
2023-05-25T13:20:27.532Z,97.56
2023-05-25T13:22:55.850Z,94.14
2023-05-25T13:25:25.294Z,93.32
2023-05-25T13:27:52.965Z,92.03
2023-05-25T13:30:22.880Z,94.07
2023-05-25T13:32:51.597Z,94.75
2023-05-25T13:35:23.281Z,94.01
2023-05-25T13:37:51.394Z,95.92
2023-05-25T13:40:19.246Z,96.65
2023-05-25T13:42:46.230Z,97.56
2023-05-25T13:45:13.760Z,98.02
2023-05-25T13:47:43.511Z,97.94
2023-05-25T13:50:11.051Z,97.37
2023-05-25T13:52:38.374Z,96.59
2023-05-25T13:55:05.473Z,96.69
2023-05-25T13:57:31.903Z,95.34
2023-05-25T13:59:58.387Z,96.46
2023-05-25T14:02:24.951Z,95.64
2023-05-25T14:04:51.511Z,96.85
2023-05-25T14:07:18.224Z,95.06
2023-05-25T14:09:44.666Z,95.08
2023-05-25T14:12:13.547Z,95.55
2023-05-25T14:14:40.997Z,95.91
2023-05-25T14:17:07.701Z,96.66
2023-05-25T14:19:36.302Z,95.73
2023-05-25T14:22:13.307Z,96.42
2023-05-25T14:24:41.005Z,94.11
2023-05-25T14:27:07.859Z,92.93
2023-05-25T14:29:34.853Z,91.59
2023-05-25T14:32:01.907Z,94.43
2023-05-25T14:34:29.586Z,92.26
2023-05-25T14:36:56.320Z,91.90
2023-05-25T14:39:22.984Z,91.28
2023-05-25T14:41:49.487Z,90.53
2023-05-25T14:44:16.518Z,90.63
2023-05-25T14:46:43.045Z,91.13
2023-05-25T14:49:09.883Z,91.46
2023-05-25T14:51:36.934Z,91.46
2023-05-25T14:54:05.392Z,92.32
2023-05-25T14:56:31.965Z,93.37
2023-05-25T14:58:58.426Z,92.43
2023-05-25T15:01:25.615Z,94.46
2023-05-25T15:03:52.660Z,93.52
2023-05-25T15:06:19.716Z,93.55
2023-05-25T15:08:46.301Z,95.00
2023-05-25T15:11:12.862Z,95.11
2023-05-25T15:13:40.851Z,95.00
2023-05-25T15:16:11.771Z,93.06
2023-05-25T15:18:39.066Z,93.53
2023-05-25T15:21:06.242Z,94.30
2023-05-25T15:23:32.739Z,94.68
2023-05-25T15:26:04.382Z,93.65
2023-05-25T15:28:31.488Z,93.67
2023-05-25T15:30:59.959Z,94.87
2023-05-25T15:33:36.122Z,93.50
2023-05-25T15:36:10.547Z,93.20
2023-05-25T15:38:37.072Z,93.11
2023-05-25T15:41:03.555Z,92.24
2023-05-25T15:43:29.990Z,94.27
2023-05-25T15:45:56.564Z,94.89
2023-05-25T15:48:25.424Z,95.29
2023-05-25T15:50:52.679Z,96.55
2023-05-25T15:53:19.148Z,96.77
2023-05-25T15:55:46.103Z,96.85
2023-05-25T15:58:12.974Z,97.17
2023-05-25T16:00:39.409Z,98.02
2023-05-25T16:03:05.929Z,97.43
2023-05-25T16:05:32.560Z,97.49
2023-05-25T16:07:59.010Z,96.99
2023-05-25T16:10:25.612Z,97.57
2023-05-25T16:12:52.189Z,97.16
2023-05-25T16:15:19.549Z,97.81
2023-05-25T16:17:45.990Z,97.99
2023-05-25T16:20:12.686Z,98.52
2023-05-25T16:22:39.184Z,98.92
2023-05-25T16:25:06.085Z,98.58
2023-05-25T16:27:32.579Z,98.39
2023-05-25T16:29:59.040Z,98.46
2023-05-25T16:32:25.718Z,98.43
2023-05-25T16:34:52.177Z,97.90
2023-05-25T16:37:18.642Z,98.59
2023-05-25T16:39:45.083Z,100.00
2023-05-25T16:42:11.526Z,99.52
2023-05-25T16:44:38.009Z,99.14
2023-05-25T16:47:04.748Z,99.50
2023-05-25T16:49:31.212Z,100.00
2023-05-25T16:51:57.914Z,99.57
2023-05-25T16:54:24.405Z,99.86
2023-05-25T16:56:51.054Z,100.00
2023-05-25T16:59:17.522Z,100.00
2023-05-25T17:01:44.042Z,100.00
2023-05-25T17:04:10.615Z,99.83
2023-05-25T17:06:37.541Z,99.48
2023-05-25T17:09:04.157Z,99.88
2023-05-25T17:11:30.709Z,100.00
2023-05-25T17:13:57.412Z,100.00
2023-05-25T17:16:24.109Z,100.00
2023-05-25T17:18:50.761Z,100.00
2023-05-25T17:21:17.207Z,100.00
2023-05-25T17:23:43.632Z,100.00
2023-05-25T17:26:10.090Z,100.00
2023-05-25T17:28:36.668Z,99.98
2023-05-25T17:31:03.244Z,100.00
2023-05-25T17:33:29.814Z,99.35
2023-05-25T17:35:56.262Z,98.87
2023-05-25T17:38:22.773Z,98.77
2023-05-25T17:40:50.209Z,100.00
2023-05-25T17:43:16.838Z,100.00
2023-05-25T17:45:43.647Z,100.00
2023-05-25T17:48:10.757Z,100.00
2023-05-25T17:50:37.262Z,100.00
2023-05-25T17:53:04.218Z,100.00
2023-05-25T17:55:30.700Z,100.00
2023-05-25T17:57:57.141Z,100.00
2023-05-25T18:00:26.247Z,100.00
2023-05-25T18:02:52.870Z,100.00
2023-05-25T18:05:19.416Z,100.00
2023-05-25T18:07:47.070Z,100.00
2023-05-25T18:10:14.682Z,100.00
2023-05-25T18:12:41.369Z,100.00
2023-05-25T18:15:08.678Z,100.00
2023-05-25T18:17:35.404Z,100.00
2023-05-25T18:20:02.128Z,100.00
2023-05-25T18:22:28.607Z,100.00
2023-05-25T18:24:55.049Z,100.00
2023-05-25T18:27:21.771Z,100.00
2023-05-25T18:29:48.268Z,100.00
2023-05-25T18:32:14.751Z,100.00
2023-05-25T18:34:41.368Z,100.00
2023-05-25T18:37:07.806Z,100.00
2023-05-25T18:39:34.245Z,100.00
2023-05-25T18:42:00.831Z,100.00
2023-05-25T18:44:28.353Z,100.00
2023-05-25T18:46:56.568Z,100.00
2023-05-25T18:49:26.295Z,100.00
2023-05-25T18:51:52.775Z,100.00
2023-05-25T18:54:19.240Z,100.00
2023-05-25T18:56:45.689Z,100.00
2023-05-25T18:59:12.140Z,100.00
2023-05-25T19:01:38.554Z,100.00
2023-05-25T19:04:05.368Z,100.00
2023-05-25T19:06:32.953Z,100.00
2023-05-25T19:08:59.387Z,100.00
2023-05-25T19:11:26.001Z,100.00
2023-05-25T19:13:52.454Z,100.00
2023-05-25T19:16:19.105Z,100.00
2023-05-25T19:18:46.966Z,100.00
2023-05-25T19:21:13.625Z,100.00
2023-05-25T19:23:41.568Z,100.00
2023-05-25T19:26:08.119Z,100.00
2023-05-25T19:28:34.586Z,100.00
2023-05-25T19:31:01.124Z,100.00
2023-05-25T19:33:27.577Z,100.00
2023-05-25T19:35:54.008Z,100.00
2023-05-25T19:38:20.758Z,100.00
2023-05-25T19:40:47.752Z,100.00
2023-05-25T19:43:14.222Z,100.00
2023-05-25T19:45:40.731Z,100.00
2023-05-25T19:48:07.253Z,100.00
2023-05-25T19:50:33.776Z,100.00
2023-05-25T19:53:01.317Z,100.00
2023-05-25T19:55:27.920Z,100.00
2023-05-25T19:57:54.629Z,100.00
2023-05-25T20:00:26.698Z,100.00
2023-05-25T20:02:53.980Z,100.00
2023-05-25T20:05:20.619Z,100.00
2023-05-25T20:07:47.323Z,100.00
2023-05-25T20:10:13.821Z,100.00
2023-05-25T20:12:40.589Z,100.00
2023-05-25T20:15:07.414Z,100.00
2023-05-25T20:17:33.897Z,100.00
2023-05-25T20:20:00.859Z,100.00
2023-05-25T20:22:30.307Z,100.00
2023-05-25T20:24:58.387Z,100.00
2023-05-25T20:27:25.335Z,100.00
2023-05-25T20:29:51.878Z,100.00
2023-05-25T20:32:18.334Z,100.00
2023-05-25T20:34:44.764Z,100.00
2023-05-25T20:37:11.353Z,100.00
2023-05-25T20:39:37.958Z,100.00
2023-05-25T20:42:04.857Z,100.00
2023-05-25T20:44:32.047Z,100.00
2023-05-25T20:46:59.477Z,100.00
2023-05-25T20:49:26.249Z,100.00
2023-05-25T20:51:52.955Z,100.00
2023-05-25T20:54:19.909Z,100.00
2023-05-25T20:56:48.030Z,100.00
2023-05-25T20:59:14.788Z,100.00
2023-05-25T21:01:41.509Z,100.00
2023-05-25T21:04:09.529Z,100.00
2023-05-25T21:06:36.549Z,100.00
2023-05-25T21:09:04.306Z,100.00
2023-05-25T21:11:31.032Z,100.00
2023-05-25T21:13:57.732Z,100.00
2023-05-25T21:16:24.400Z,100.00
2023-05-25T21:18:51.129Z,100.00
2023-05-25T21:21:17.706Z,100.00
2023-05-25T21:23:44.196Z,100.00
2023-05-25T21:26:10.897Z,100.00
2023-05-25T21:28:37.408Z,100.00
2023-05-25T21:31:03.857Z,100.00
2023-05-25T21:33:35.524Z,100.00
2023-05-25T21:36:02.673Z,100.00
2023-05-25T21:38:29.330Z,100.00
2023-05-25T21:40:55.840Z,100.00
2023-05-25T21:43:22.343Z,100.00
2023-05-25T21:45:48.843Z,100.00
2023-05-25T21:48:15.368Z,100.00
2023-05-25T21:50:41.903Z,100.00
2023-05-25T21:53:08.470Z,100.00
2023-05-25T21:55:34.907Z,100.00
2023-05-25T21:58:01.342Z,100.00
2023-05-25T22:00:27.785Z,100.00
2023-05-25T22:02:54.363Z,100.00
2023-05-25T22:05:20.957Z,100.00
2023-05-25T22:07:47.395Z,100.00
2023-05-25T22:10:13.851Z,100.00
2023-05-25T22:12:40.286Z,100.00
2023-05-25T22:15:07.303Z,100.00
2023-05-25T22:17:33.939Z,100.00
2023-05-25T22:20:08.094Z,100.00
2023-05-25T22:22:35.040Z,100.00
2023-05-25T22:25:01.731Z,100.00
2023-05-25T22:27:28.271Z,100.00
2023-05-25T22:29:54.730Z,100.00
2023-05-25T22:32:21.349Z,100.00
2023-05-25T22:34:47.811Z,100.00
2023-05-25T22:37:14.337Z,100.00
2023-05-25T22:39:40.760Z,100.00
2023-05-25T22:42:07.406Z,100.00
2023-05-25T22:44:36.777Z,100.00
2023-05-25T22:47:03.667Z,100.00
2023-05-25T22:49:30.166Z,100.00
2023-05-25T22:51:56.593Z,100.00
2023-05-25T22:54:23.072Z,100.00
2023-05-25T22:56:49.978Z,100.00
2023-05-25T22:59:16.587Z,100.00
2023-05-25T23:01:43.190Z,100.00
2023-05-25T23:04:09.805Z,100.00
2023-05-25T23:06:36.995Z,100.00
2023-05-25T23:09:03.529Z,100.00
2023-05-25T23:11:29.997Z,100.00
2023-05-25T23:13:56.407Z,100.00
2023-05-25T23:16:23.557Z,100.00
2023-05-25T23:18:51.705Z,100.00
2023-05-25T23:21:18.546Z,100.00
2023-05-25T23:23:44.974Z,100.00
2023-05-25T23:26:11.425Z,100.00
2023-05-25T23:28:37.898Z,100.00
2023-05-25T23:31:04.548Z,100.00
2023-05-25T23:33:31.185Z,100.00
2023-05-25T23:35:57.646Z,100.00
2023-05-25T23:38:24.121Z,100.00
2023-05-25T23:40:50.613Z,100.00
2023-05-25T23:43:17.303Z,100.00
2023-05-25T23:45:43.996Z,100.00
2023-05-25T23:48:10.734Z,100.00
2023-05-25T23:50:37.250Z,100.00
2023-05-25T23:53:03.675Z,100.00
2023-05-25T23:55:30.560Z,100.00
2023-05-25T23:57:57.044Z,100.00
